Time;durP1;ratioP1;P1;durP2;ratioP2;P2;SDS_P1;SDS_P2;PMS_P1;PMS_P2;Temp;Humidity;BMP_temperature;BMP_pressure;BME280_temperature;BME280_humidity;BME280_pressure;Samples;Min_cycle;Max_cycle;Signal;HPM_P1;HPM_P2
2024/04/15 00:03:44;;;;;;;13.20;2.67;;;;;;;9.99;67.06;100454.80;5098593;55;1138513;-81
2024/04/15 00:08:50;;;;;;;10.17;2.73;;;;;;;9.91;67.42;100454.56;5064370;56;1138929;-82
2024/04/15 00:13:56;;;;;;;7.87;2.50;;;;;;;9.83;67.88;100455.97;5044477;56;1138962;-83
2024/04/15 00:19:01;;;;;;;10.40;2.37;;;;;;;9.83;68.12;100449.84;5045389;57;1136675;-83
2024/04/15 00:24:07;;;;;;;6.53;3.22;;;;;;;9.83;68.49;100433.52;5044671;57;1138750;-81
2024/04/15 00:29:13;;;;;;;19.07;2.90;;;;;;;9.92;69.29;100433.80;5064428;56;1136728;-83
2024/04/15 00:34:19;;;;;;;3.70;2.00;;;;;;;9.91;69.52;100426.34;5044448;56;1138776;-81
2024/04/15 00:39:30;;;;;;;12.63;4.70;;;;;;;9.94;70.00;100423.92;5044734;57;1136779;-82
2024/04/15 00:44:36;;;;;;;12.00;4.27;;;;;;;9.99;70.81;100419.14;5086149;56;1138795;-83
2024/04/15 00:49:42;;;;;;;8.20;2.57;;;;;;;10.05;71.71;100413.39;5128708;55;1138580;-82
2024/04/15 00:54:48;;;;;;;10.80;2.60;;;;;;;9.97;72.05;100415.77;5128673;55;1138832;-81
2024/04/15 00:59:54;;;;;;;8.67;1.80;;;;;;;9.94;72.58;100413.36;5128999;55;1139163;-82
2024/04/15 01:05:00;;;;;;;5.80;2.40;;;;;;;9.94;73.37;100414.67;5129424;56;1136636;-82
2024/04/15 01:10:07;;;;;;;9.33;2.83;;;;;;;10.03;74.40;100417.95;5129758;56;1136699;-81
2024/04/15 01:15:13;;;;;;;8.70;2.30;;;;;;;10.15;74.56;100415.68;5147853;56;1138748;-83
2024/04/15 01:20:18;;;;;;;10.47;2.90;;;;;;;10.27;74.57;100405.98;5126397;56;1138681;-82
2024/04/15 01:25:24;;;;;;;4.53;1.87;;;;;;;10.32;74.68;100410.44;5128570;56;1140958;-81
2024/04/15 01:30:30;;;;;;;8.47;2.30;;;;;;;10.21;73.87;100402.87;5110121;56;1138800;-82
2024/04/15 01:35:35;;;;;;;6.03;1.87;;;;;;;10.04;73.67;100406.42;5044729;56;1138644;-82
2024/04/15 01:40:41;;;;;;;5.47;2.20;;;;;;;9.89;73.61;100407.13;5044129;56;1138630;-80
2024/04/15 01:45:47;;;;;;;7.97;3.00;;;;;;;9.79;73.97;100408.28;5108086;55;1136700;-78
2024/04/15 01:50:53;;;;;;;7.67;2.27;;;;;;;9.76;74.19;100393.17;5129500;55;1136912;-80
2024/04/15 01:55:58;;;;;;;7.87;2.27;;;;;;;9.72;73.96;100396.52;5092513;55;1136868;-79
2024/04/15 02:01:07;;;;;;;7.47;2.30;;;;;;;9.66;74.22;100404.89;5025880;57;1136760;-80
2024/04/15 02:06:12;;;;;;;7.57;2.33;;;;;;;9.62;74.69;100403.95;5045753;57;1134509;-80
2024/04/15 02:11:18;;;;;;;10.07;2.30;;;;;;;9.66;74.50;100402.73;5025477;57;1134498;-80
2024/04/15 02:16:24;;;;;;;10.98;2.62;;;;;;;9.64;74.60;100409.92;5025188;57;1136824;-79
2024/04/15 02:21:29;;;;;;;7.40;3.00;;;;;;;9.63;74.68;100389.28;5044604;57;1136914;-80
2024/04/15 02:26:35;;;;;;;7.97;3.07;;;;;;;9.63;75.04;100385.31;5024964;55;1134676;-79
2024/04/15 02:31:40;;;;;;;9.90;2.50;;;;;;;9.64;76.24;100370.31;5025440;56;1134617;-80
2024/04/15 02:36:46;;;;;;;10.37;2.90;;;;;;;9.64;77.25;100387.48;5044768;57;1136725;-79
2024/04/15 02:41:51;;;;;;;16.43;3.20;;;;;;;9.56;77.63;100370.07;5024813;57;1136873;-80
2024/04/15 02:46:57;;;;;;;13.33;2.90;;;;;;;9.53;77.88;100362.74;5066697;55;1256457;-79
2024/04/15 02:52:02;;;;;;;9.63;3.00;;;;;;;9.57;77.97;100369.95;5109078;56;1136594;-79
2024/04/15 02:57:08;;;;;;;8.63;3.15;;;;;;;9.52;77.77;100368.98;5137414;56;1134264;-79
2024/04/15 03:02:13;;;;;;;12.00;2.67;;;;;;;9.45;78.40;100362.50;5129117;56;1134423;-80
2024/04/15 03:07:19;;;;;;;10.27;2.50;;;;;;;9.43;79.29;100374.12;5128603;56;1136653;-80
2024/04/15 03:12:24;;;;;;;6.10;3.20;;;;;;;9.34;79.78;100372.99;5148866;56;1136861;-80
2024/04/15 03:17:30;;;;;;;11.50;3.23;;;;;;;9.33;80.23;100365.19;5129202;56;1134574;-80
2024/04/15 03:22:36;;;;;;;15.37;3.87;;;;;;;9.32;80.80;100366.17;5097682;56;1136749;-80
2024/04/15 03:27:41;;;;;;;10.50;2.83;;;;;;;9.27;80.93;100349.35;5064201;56;1136751;-79
2024/04/15 03:32:47;;;;;;;5.90;2.93;;;;;;;9.30;81.42;100320.10;5044072;56;1136641;-80
2024/04/15 03:37:52;;;;;;;13.93;2.93;;;;;;;9.33;81.50;100319.84;5043091;56;1134706;-79
2024/04/15 03:42:58;;;;;;;8.63;2.73;;;;;;;9.29;81.60;100326.81;5061340;57;1136465;-80
2024/04/15 03:48:04;;;;;;;10.70;3.12;;;;;;;9.23;82.32;100336.02;5127206;55;1134566;-80
2024/04/15 03:53:10;;;;;;;13.83;3.27;;;;;;;9.17;82.00;100316.67;5129913;56;1146088;-80
2024/04/15 03:58:16;;;;;;;16.93;4.47;;;;;;;9.05;82.68;100321.08;5145677;56;1136429;-80
2024/04/15 04:03:22;;;;;;;10.33;3.10;;;;;;;8.97;82.98;100310.27;5109411;56;1136484;-80
2024/04/15 04:08:27;;;;;;;10.00;3.80;;;;;;;8.89;83.95;100322.32;5108968;56;1136444;-80
2024/04/15 04:13:35;;;;;;;11.10;3.40;;;;;;;8.87;84.09;100311.04;5129572;56;1136693;-80
2024/04/15 04:18:41;;;;;;;8.27;3.67;;;;;;;8.87;84.76;100294.73;5109105;55;1137027;-79
2024/04/15 04:23:46;;;;;;;7.33;3.07;;;;;;;8.92;85.05;100279.91;5109381;56;1134538;-79
2024/04/15 04:28:52;;;;;;;8.33;2.80;;;;;;;8.89;84.60;100282.77;5129371;56;1134282;-80
2024/04/15 04:33:58;;;;;;;9.27;2.93;;;;;;;8.88;84.76;100274.48;5109738;56;1141975;-80
2024/04/15 04:39:04;;;;;;;12.90;2.73;;;;;;;8.87;85.54;100284.19;5053959;56;1134854;-79
2024/04/15 04:44:09;;;;;;;3.95;2.12;;;;;;;8.86;85.71;100283.83;5026064;56;1136806;-79
2024/04/15 04:49:15;;;;;;;24.60;11.22;;;;;;;8.84;85.33;100280.48;5044839;56;1136561;-79
2024/04/15 04:54:20;;;;;;;25.10;12.17;;;;;;;8.90;85.94;100268.63;5098749;56;1139010;-79
2024/04/15 04:59:26;;;;;;;11.60;5.17;;;;;;;8.90;86.29;100271.26;5109977;56;1138469;-79
2024/04/15 05:04:33;;;;;;;15.67;3.33;;;;;;;8.87;86.61;100284.19;5149249;56;1136536;-77
2024/04/15 05:09:40;;;;;;;10.57;2.60;;;;;;;8.87;86.90;100281.55;5129465;56;1136303;-78
2024/04/15 05:14:50;;;;;;;19.37;3.07;;;;;;;8.81;88.41;100273.64;5103489;56;1136812;-80
2024/04/15 05:19:56;;;;;;;14.43;2.87;;;;;;;8.77;88.36;100270.86;5064568;57;1136305;-80
2024/04/15 05:25:01;;;;;;;21.83;2.80;;;;;;;8.74;88.32;100282.94;5045593;57;1138283;-80
2024/04/15 05:30:08;;;;;;;8.85;3.52;;;;;;;8.78;88.32;100266.42;5045227;57;1136655;-79
2024/04/15 05:35:14;;;;;;;13.30;2.80;;;;;;;8.86;88.49;100266.69;5064619;57;1134494;-79
2024/04/15 05:40:20;;;;;;;11.37;3.00;;;;;;;8.93;88.47;100258.69;5062292;56;1137026;-80
2024/04/15 05:45:25;;;;;;;12.00;3.17;;;;;;;9.02;88.31;100261.95;5129212;55;1137137;-79
2024/04/15 05:50:31;;;;;;;8.77;2.87;;;;;;;9.08;88.24;100248.78;5148275;56;1136634;-79
2024/04/15 05:55:38;;;;;;;8.93;2.70;;;;;;;9.19;88.87;100247.48;5128884;55;1134656;-79
2024/04/15 06:00:44;;;;;;;13.87;2.87;;;;;;;9.26;88.51;100235.52;5128609;55;1134619;-78
2024/04/15 06:05:51;;;;;;;16.97;3.60;;;;;;;9.26;88.53;100234.67;5130035;55;1136457;-82
2024/04/15 06:10:57;;;;;;;14.80;3.30;;;;;;;9.28;88.79;100234.08;5108000;56;1136443;-79
2024/04/15 06:16:02;;;;;;;12.83;2.70;;;;;;;9.34;89.68;100244.98;5109021;56;1136792;-81
2024/04/15 06:21:08;;;;;;;12.23;2.75;;;;;;;9.31;89.69;100247.89;5109469;56;1136597;-81
2024/04/15 06:26:14;;;;;;;12.90;3.35;;;;;;;9.26;89.62;100253.98;5128760;56;1136636;-82
2024/04/15 06:31:20;;;;;;;6.77;2.47;;;;;;;9.25;89.72;100239.11;5108826;56;1136778;-81
2024/04/15 06:36:25;;;;;;;5.57;2.50;;;;;;;9.27;89.65;100235.88;5097335;56;1134504;-81
2024/04/15 06:41:31;;;;;;;5.50;2.10;;;;;;;9.29;88.92;100232.65;5044745;56;1134344;-80
2024/04/15 06:46:36;;;;;;;13.30;2.27;;;;;;;9.38;88.33;100226.65;5082371;55;1134694;-80
2024/04/15 06:51:42;;;;;;;8.97;2.00;;;;;;;9.38;88.33;100226.65;5107991;55;1136720;-81
2024/04/15 06:56:47;;;;;;;7.47;2.00;;;;;;;9.45;88.60;100217.31;5129445;55;1134501;-80
2024/04/15 07:01:53;;;;;;;9.73;2.63;;;;;;;9.58;86.57;100195.23;5108278;56;1136726;-80
2024/04/15 07:06:58;;;;;;;17.23;2.37;;;;;;;9.85;87.32;100184.63;5100596;56;1232731;-81
2024/04/15 07:12:04;;;;;;;6.42;1.92;;;;;;;10.29;87.57;100183.35;5044882;56;1138727;-80
2024/04/15 07:17:10;;;;;;;9.95;1.62;;;;;;;10.62;81.65;100178.41;5065535;56;1138837;-81
2024/04/15 07:22:18;;;;;;;7.60;1.77;;;;;;;10.78;80.51;100188.08;5045875;56;1138869;-81
2024/04/15 07:27:22;;;;;;;12.20;2.03;;;;;;;10.80;78.73;100173.76;5043719;56;1138842;-80
2024/04/15 07:32:28;;;;;;;11.10;1.53;;;;;;;10.79;79.36;100171.23;5070953;56;1141070;-80
2024/04/15 07:37:34;;;;;;;7.47;1.80;;;;;;;10.66;79.16;100167.47;5044378;56;1140977;-82
2024/04/15 07:42:40;;;;;;;6.67;1.70;;;;;;;10.67;79.69;100163.86;5043765;56;1138759;-81
2024/04/15 07:47:45;;;;;;;4.42;1.72;;;;;;;10.78;79.88;100150.56;5141732;56;1138766;-82
2024/04/15 07:52:51;;;;;;;6.63;1.83;;;;;;;11.14;80.17;100147.09;5128019;55;1194194;-80
2024/04/15 07:57:58;;;;;;;7.73;1.63;;;;;;;11.42;76.22;100150.34;5128656;55;1139239;-80
2024/04/15 08:03:05;;;;;;;7.67;1.77;;;;;;;11.55;75.84;100150.11;5130256;55;1180718;-81
2024/04/15 08:08:11;;;;;;;6.97;1.42;;;;;;;11.63;78.12;100143.16;5040723;56;1139048;-81
2024/04/15 08:13:17;;;;;;;4.63;1.30;;;;;;;11.67;77.57;100141.56;5024827;56;1138734;-79
2024/04/15 08:18:22;;;;;;;3.27;2.10;;;;;;;11.75;76.55;100150.53;5024838;56;1138812;-79
2024/04/15 08:23:28;;;;;;;7.30;1.20;;;;;;;11.55;77.48;100140.84;5044593;56;1138549;-78
2024/04/15 08:28:34;;;;;;;9.70;1.77;;;;;;;11.45;77.35;100139.98;5030401;56;1138925;-82
2024/04/15 08:33:39;;;;;;;5.50;1.63;;;;;;;11.54;79.04;100136.52;5024158;57;1138885;-81
2024/04/15 08:38:45;;;;;;;41.50;22.97;;;;;;;11.78;79.59;100127.75;5043951;57;1138874;-81
2024/04/15 08:43:54;;;;;;;8.93;3.77;;;;;;;12.01;78.73;100123.06;5035567;56;1142710;-83
2024/04/15 08:49:02;;;;;;;10.40;1.20;;;;;;;12.10;76.33;100107.64;5092631;56;1138785;-82
2024/04/15 08:54:08;;;;;;;4.30;1.52;;;;;;;12.04;73.82;100105.56;5089911;56;1244691;-79
2024/04/15 08:59:18;;;;;;;5.40;1.52;;;;;;;11.85;75.66;100104.20;5120263;56;1138990;-80
2024/04/15 09:04:25;;;;;;;8.03;1.40;;;;;;;11.99;78.82;100095.85;5041283;56;1244085;-81
2024/04/15 09:09:31;;;;;;;11.30;2.30;;;;;;;12.18;76.48;100091.89;5020779;57;1253055;-81
2024/04/15 09:14:36;;;;;;;5.67;1.50;;;;;;;12.26;77.00;100099.13;5043033;57;1247710;-80
2024/04/15 09:19:51;;;;;;;9.67;1.73;;;;;;;12.37;76.38;100087.08;5023976;57;1175945;-82
2024/04/15 09:24:57;;;;;;;11.83;2.60;;;;;;;12.50;74.44;100088.11;5028326;56;1243864;-80
2024/04/15 09:30:05;;;;;;;8.03;2.50;;;;;;;12.64;74.44;100067.27;5024300;57;1248139;-80
2024/04/15 09:35:11;;;;;;;5.93;1.37;;;;;;;12.66;74.17;100060.01;5027985;57;1255089;-79
2024/04/15 09:40:21;;;;;;;9.48;2.00;;;;;;;12.75;72.39;100059.62;5022353;56;1251204;-79
2024/04/15 09:45:27;;;;;;;6.60;1.40;;;;;;;12.87;70.07;100059.79;5057501;56;1251507;-81
2024/04/15 09:50:35;;;;;;;10.30;1.80;;;;;;;12.78;68.92;100067.80;5126757;56;1254217;-79
2024/04/15 09:55:44;;;;;;;9.07;1.97;;;;;;;12.60;69.38;100061.89;5050045;56;1252803;-81
2024/04/15 10:00:53;;;;;;;4.50;1.10;;;;;;;12.61;69.75;100049.47;5020964;56;1256221;-79
2024/04/15 10:06:02;;;;;;;7.30;1.60;;;;;;;12.86;66.16;100040.86;5044939;57;1138691;-79
2024/04/15 10:11:08;;;;;;;6.23;1.73;;;;;;;13.14;67.25;100043.05;5014880;57;1139091;-81
2024/04/15 10:16:22;;;;;;;7.00;1.37;;;;;;;13.22;66.50;100037.89;4996290;57;1138811;-81
2024/04/15 10:21:34;;;;;;;6.23;1.37;;;;;;;13.25;64.61;100032.28;5018364;57;1138785;-82
2024/04/15 10:26:39;;;;;;;12.80;2.10;;;;;;;13.36;64.16;100018.80;5005609;57;1138744;-81
2024/04/15 10:31:52;;;;;;;4.70;1.30;;;;;;;13.57;60.96;100013.71;4995648;57;1140900;-81
2024/04/15 10:36:58;;;;;;;10.03;1.97;;;;;;;13.66;61.33;100005.66;5014645;57;1138855;-80
2024/04/15 10:42:04;;;;;;;8.33;1.95;;;;;;;13.44;61.97;99994.65;4998155;58;1140864;-82
2024/04/15 10:47:09;;;;;;;7.65;1.70;;;;;;;13.70;61.36;99986.27;5059812;56;1201950;-83
2024/04/15 10:52:15;;;;;;;7.47;1.32;;;;;;;13.78;61.50;99981.50;5073045;56;1136913;-83
2024/04/15 10:57:20;;;;;;;12.05;2.40;;;;;;;13.85;57.78;99961.31;4993703;57;1220552;-82
2024/04/15 11:02:26;;;;;;;5.00;1.50;;;;;;;13.81;57.94;99960.78;4993548;56;1240074;-82
2024/04/15 11:07:32;;;;;;;5.73;1.43;;;;;;;13.62;59.69;99946.31;5014983;57;1136552;-83
2024/04/15 11:12:38;;;;;;;6.07;1.30;;;;;;;13.76;61.55;99940.95;5001408;57;1198386;-81
2024/04/15 11:17:53;;;;;;;7.77;1.63;;;;;;;14.16;57.81;99937.29;5030870;56;1136536;-81
2024/04/15 11:22:59;;;;;;;10.47;1.33;;;;;;;14.38;54.61;99945.22;5043991;56;1136786;-82
2024/04/15 11:28:10;;;;;;;4.85;1.12;;;;;;;14.67;54.70;99935.09;5048550;56;1138567;-81
2024/04/15 11:33:16;;;;;;;5.65;1.52;;;;;;;14.96;52.92;99932.08;5024960;57;1136879;-81
2024/04/15 11:38:24;;;;;;;6.00;1.52;;;;;;;14.51;55.38;99911.59;5044639;57;1136562;-82
2024/04/15 11:43:29;;;;;;;13.73;1.97;;;;;;;14.51;55.38;99911.59;5029306;56;1136362;-82
2024/04/15 11:48:35;;;;;;;6.70;1.10;;;;;;;14.36;56.34;99905.47;5077905;56;1138824;-82
2024/04/15 11:53:40;;;;;;;3.43;1.00;;;;;;;14.22;56.90;99895.91;5050676;56;1136676;-82
2024/04/15 11:58:49;;;;;;;8.63;1.70;;;;;;;14.04;56.98;99886.69;5024306;56;1136404;-83
2024/04/15 12:03:56;;;;;;;8.50;1.30;;;;;;;14.02;56.39;99878.03;5023809;56;1136663;-81
2024/04/15 12:09:03;;;;;;;3.03;1.10;;;;;;;14.39;54.84;99866.59;5097496;56;1136896;-84
2024/04/15 12:14:08;;;;;;;7.57;1.50;;;;;;;14.68;57.19;99858.74;5067539;56;1136796;-82
2024/04/15 12:19:14;;;;;;;6.95;1.62;;;;;;;14.92;54.95;99844.69;5044815;57;1136539;-83
2024/04/15 12:24:19;;;;;;;7.73;1.57;;;;;;;15.22;55.92;99816.09;5064745;57;1136663;-81
2024/04/15 12:29:25;;;;;;;9.13;1.80;;;;;;;15.32;52.57;99811.42;5044042;57;1136645;-81
2024/04/15 12:34:32;;;;;;;6.10;1.97;;;;;;;15.37;53.28;99790.95;5044307;57;1136706;-82
2024/04/15 12:39:40;;;;;;;3.13;1.20;;;;;;;15.81;53.10;99774.08;5063585;57;1136710;-81
2024/04/15 12:44:45;;;;;;;12.83;1.37;;;;;;;15.53;49.70;99774.95;5045106;56;1136569;-82
2024/04/15 12:49:51;;;;;;;11.60;1.80;;;;;;;15.34;52.44;99781.45;5043921;57;1138526;-82
2024/04/15 12:54:57;;;;;;;4.10;0.93;;;;;;;15.37;49.42;99797.11;5064123;57;1139286;-82
2024/04/15 13:00:04;;;;;;;10.60;1.10;;;;;;;15.16;50.42;99782.61;5043032;57;1249523;-82
2024/04/15 13:05:10;;;;;;;5.10;1.27;;;;;;;15.16;49.67;99788.77;5044882;57;1138954;-81
2024/04/15 13:10:15;;;;;;;3.65;0.98;;;;;;;15.04;50.81;99778.13;5050294;56;1136444;-82
2024/04/15 13:15:21;;;;;;;7.03;1.20;;;;;;;15.08;52.68;99766.15;5063744;56;1136343;-82
2024/04/15 13:20:26;;;;;;;7.93;1.87;;;;;;;15.03;51.70;99761.31;5042429;56;1136666;-80
2024/04/15 13:25:33;;;;;;;4.57;1.10;;;;;;;15.09;54.16;99747.84;5044452;56;1136356;-81
2024/04/15 13:30:39;;;;;;;6.23;1.47;;;;;;;15.38;54.03;99736.66;5064257;57;1136355;-82
2024/04/15 13:35:44;;;;;;;8.20;1.70;;;;;;;15.68;54.25;99741.80;5044422;56;1136739;-81
2024/04/15 13:40:50;;;;;;;11.10;3.23;;;;;;;15.56;51.89;99736.50;5045780;56;1136531;-80
2024/04/15 13:45:56;;;;;;;4.93;1.60;;;;;;;15.28;53.61;99731.48;5110813;56;1139057;-80
2024/04/15 13:51:02;;;;;;;6.63;1.30;;;;;;;15.14;54.70;99718.36;5128688;55;1136688;-83
2024/04/15 13:56:09;;;;;;;7.27;1.13;;;;;;;15.25;56.74;99713.20;5128866;56;1136420;-84
2024/04/15 14:01:14;;;;;;;5.65;2.27;;;;;;;15.31;55.05;99705.02;5129602;55;1136863;-82
2024/04/15 14:06:21;;;;;;;7.05;1.47;;;;;;;15.45;54.35;99683.84;5139134;55;1136810;-82
2024/04/15 14:11:26;;;;;;;2.30;1.10;;;;;;;15.59;52.73;99675.66;5119224;56;1137071;-79
2024/04/15 14:16:32;;;;;;;3.53;1.50;;;;;;;15.51;53.12;99659.68;5125137;56;1136487;-81
2024/04/15 14:21:38;;;;;;;5.40;2.37;;;;;;;15.28;53.93;99648.07;5144742;56;1136560;-83
2024/04/15 14:26:43;;;;;;;5.60;1.30;;;;;;;15.07;55.00;99626.83;5091592;56;1136587;-83
2024/04/15 14:31:49;;;;;;;5.77;1.90;;;;;;;15.01;54.51;99624.83;5094164;56;1136746;-82
2024/04/15 14:37:00;;;;;;;4.93;2.43;;;;;;;14.95;54.96;99597.57;5109958;56;1136682;-82
2024/04/15 14:42:02;;;;;;;6.47;1.30;;;;;;;15.22;56.20;99577.68;5108297;56;1136641;-82
2024/04/15 14:47:09;;;;;;;2.76;0.82;;;;;;;15.53;55.04;99555.07;5110217;56;1136620;-83
2024/04/15 14:52:16;;;;;;;4.12;1.37;;;;;;;15.72;52.10;99566.67;5149393;56;1136517;-82
2024/04/15 14:57:22;;;;;;;9.40;1.47;;;;;;;15.92;51.45;99550.20;5129601;56;1136541;-84
2024/04/15 15:02:27;;;;;;;6.13;1.73;;;;;;;16.07;50.99;99529.25;5088824;56;1136698;-84
2024/04/15 15:07:34;;;;;;;10.50;1.73;;;;;;;15.82;50.44;99520.61;5103174;56;1136740;-85
2024/04/15 15:12:40;;;;;;;3.00;0.97;;;;;;;15.90;49.65;99510.88;5080693;56;1138597;-81
2024/04/15 15:17:46;;;;;;;4.37;1.70;;;;;;;15.94;51.39;99509.02;5095882;56;1136466;-86
2024/04/15 15:22:52;;;;;;;7.60;2.57;;;;;;;15.65;52.93;99522.22;5082247;55;1136647;-82
2024/04/15 15:27:58;;;;;;;9.48;4.32;;;;;;;15.26;54.39;99535.55;5072048;55;1136838;-83
2024/04/15 15:33:04;;;;;;;7.37;3.13;;;;;;;15.08;56.03;99510.48;5070470;55;1136586;-83
2024/04/15 15:38:10;;;;;;;10.63;3.87;;;;;;;15.06;55.90;99516.48;5072803;54;1136784;-81
2024/04/15 15:43:16;;;;;;;30.87;12.20;;;;;;;15.16;56.64;99505.61;5129231;56;1144868;-84
2024/04/15 15:48:21;;;;;;;14.30;6.13;;;;;;;15.22;56.44;99501.77;5069183;55;1140908;-80
2024/04/15 15:53:29;;;;;;;4.12;1.77;;;;;;;15.19;55.80;99507.94;5047534;56;1138717;-81
2024/04/15 15:58:36;;;;;;;6.20;1.40;;;;;;;15.03;55.75;99512.32;5071604;56;1136803;-81
2024/04/15 16:03:42;;;;;;;7.63;1.90;;;;;;;14.77;56.09;99516.57;5101500;56;1136589;-80
2024/04/15 16:08:48;;;;;;;7.37;2.10;;;;;;;14.55;57.51;99497.31;5099376;56;1136777;-81
2024/04/15 16:13:54;;;;;;;5.80;3.60;;;;;;;14.38;59.19;99492.98;5124633;55;1136527;-84
2024/04/15 16:18:59;;;;;;;14.63;9.00;;;;;;;14.29;59.95;99461.59;5129756;56;1136707;-83
2024/04/15 16:24:07;;;;;;;5.33;3.20;;;;;;;14.15;60.82;99452.96;5120357;56;1138879;-81
2024/04/15 16:29:12;;;;;;;13.27;3.60;;;;;;;14.08;61.03;99440.82;5064482;56;1136798;-80
2024/04/15 16:34:18;;;;;;;5.92;3.55;;;;;;;14.02;61.38;99417.58;5128858;56;1138656;-81
2024/04/15 16:39:23;;;;;;;9.03;2.47;;;;;;;13.99;62.43;99409.94;5109167;56;1136685;-81
2024/04/15 16:44:29;;;;;;;35.83;9.47;;;;;;;14.02;62.88;99402.12;5109546;56;1136813;-82
2024/04/15 16:49:34;;;;;;;13.00;5.17;;;;;;;13.95;63.15;99397.14;5129132;56;1139154;-81
2024/04/15 16:54:40;;;;;;;11.50;4.37;;;;;;;13.79;64.00;99394.00;5105880;56;1138605;-82
2024/04/15 16:59:47;;;;;;;15.93;3.00;;;;;;;13.82;64.88;99380.38;5025228;56;1138597;-80
2024/04/15 17:04:53;;;;;;;18.10;4.90;;;;;;;13.80;66.20;99366.92;5039013;56;1138679;-80
2024/04/15 17:09:58;;;;;;;10.73;2.60;;;;;;;13.74;66.18;99347.19;5031902;56;1138616;-78
2024/04/15 17:15:04;;;;;;;2.93;1.53;;;;;;;13.76;67.12;99333.20;5041122;56;1138828;-80
2024/04/15 17:20:11;;;;;;;14.87;3.83;;;;;;;13.74;68.34;99319.28;5053662;56;1136786;-82
2024/04/15 17:25:17;;;;;;;20.65;5.95;;;;;;;13.64;67.83;99298.19;5075601;56;1138999;-83
2024/04/15 17:30:23;;;;;;;8.03;3.10;;;;;;;13.54;69.05;99291.40;5075106;56;1138760;-82
2024/04/15 17:35:28;;;;;;;40.50;35.92;;;;;;;13.42;70.10;99284.28;5085796;56;1136638;-80
2024/04/15 17:40:34;;;;;;;46.70;27.50;;;;;;;13.29;71.53;99276.00;5117110;55;1140739;-81
2024/04/15 17:45:39;;;;;;;8.77;3.93;;;;;;;13.19;71.41;99282.78;5085635;55;1140684;-81
2024/04/15 17:50:45;;;;;;;9.20;2.80;;;;;;;13.07;73.28;99273.95;5128228;55;1136399;-83
2024/04/15 17:55:51;;;;;;;27.47;5.87;;;;;;;12.95;72.99;99268.98;5099969;56;1136445;-83
2024/04/15 18:00:56;;;;;;;8.90;4.30;;;;;;;12.87;74.40;99268.13;5105990;56;1138929;-82
2024/04/15 18:06:02;;;;;;;287.53;220.43;;;;;;;12.79;75.01;99263.65;5067761;56;1136784;-84
2024/04/15 18:11:08;;;;;;;25.27;15.27;;;;;;;12.69;76.10;99244.38;5086345;56;1145108;-84
2024/04/15 18:16:13;;;;;;;15.98;7.53;;;;;;;12.66;76.38;99240.75;5105532;56;1140835;-83
2024/04/15 18:21:19;;;;;;;6.72;3.15;;;;;;;12.60;77.60;99232.11;5079414;56;1138625;-83
2024/04/15 18:26:24;;;;;;;5.67;3.15;;;;;;;12.50;78.66;99239.39;5088961;56;1136529;-83
2024/04/15 18:31:30;;;;;;;7.50;2.63;;;;;;;12.39;79.79;99229.90;5091459;56;1136575;-82
2024/04/15 18:36:36;;;;;;;7.50;3.33;;;;;;;12.26;82.21;99226.39;5066775;56;1136547;-85
2024/04/15 18:41:42;;;;;;;6.47;3.00;;;;;;;12.16;82.11;99211.13;5064367;56;1136774;-81
2024/04/15 18:46:47;;;;;;;15.50;4.50;;;;;;;12.13;82.29;99203.98;5129051;56;1136688;-82
2024/04/15 18:51:53;;;;;;;15.80;6.67;;;;;;;12.09;83.23;99188.06;5051736;56;1138768;-84
2024/04/15 18:56:59;;;;;;;26.37;13.63;;;;;;;12.07;83.84;99176.82;5109032;56;1138848;-82
2024/04/15 19:02:05;;;;;;;10.67;5.50;;;;;;;11.95;84.70;99172.29;5102060;56;1140893;-84
2024/04/15 19:07:10;;;;;;;14.60;3.90;;;;;;;11.91;86.33;99160.38;5045173;57;1138509;-84
2024/04/15 19:12:17;;;;;;;11.90;4.40;;;;;;;11.80;85.82;99153.53;5025731;57;1138705;-82
2024/04/15 19:17:22;;;;;;;15.60;5.03;;;;;;;11.76;87.16;99154.03;5036496;56;1138761;-83
2024/04/15 19:22:28;;;;;;;16.67;5.10;;;;;;;11.71;88.84;99136.42;5069258;56;1138792;-85
2024/04/15 19:27:35;;;;;;;19.10;5.30;;;;;;;11.70;89.86;99134.77;5085786;56;1138553;-82
2024/04/15 19:32:41;;;;;;;17.77;5.37;;;;;;;11.64;89.24;99123.80;5086258;56;1138866;-81
2024/04/15 19:37:46;;;;;;;16.53;6.80;;;;;;;11.53;91.17;99116.66;5129723;56;1138460;-81
2024/04/15 19:42:52;;;;;;;13.30;5.80;;;;;;;11.46;90.41;99091.30;5109035;56;1138501;-83
2024/04/15 19:47:59;;;;;;;13.07;5.23;;;;;;;11.40;92.27;99084.00;5030170;56;1138803;-82
2024/04/15 19:53:05;;;;;;;18.10;10.05;;;;;;;11.36;91.81;99063.30;5030222;56;1138942;-83
2024/04/15 19:58:10;;;;;;;11.93;5.90;;;;;;;11.28;93.37;99039.80;5045300;56;1141026;-84
2024/04/15 20:03:16;;;;;;;11.10;5.97;;;;;;;11.21;94.69;99023.38;5052903;56;1138842;-83
2024/04/15 20:08:22;;;;;;;10.75;5.30;;;;;;;11.13;96.56;99016.73;5109758;56;1138817;-83
2024/04/15 20:13:29;;;;;;;15.53;6.50;;;;;;;11.03;96.05;99008.91;5126123;56;1138546;-82
2024/04/15 20:18:42;;;;;;;15.40;6.17;;;;;;;10.99;97.39;98993.04;5025196;57;1138784;-82
2024/04/15 20:23:43;;;;;;;17.20;5.65;;;;;;;10.96;96.11;98977.48;5059748;56;1138694;-82
2024/04/15 20:28:49;;;;;;;14.50;6.37;;;;;;;10.91;98.47;98955.47;5114116;56;1138680;-83
2024/04/15 20:33:55;;;;;;;16.17;6.33;;;;;;;10.88;96.38;98945.69;5068022;56;1138814;-82
2024/04/15 20:39:01;;;;;;;12.47;6.10;;;;;;;10.84;97.14;98929.34;5028960;56;1138645;-81
2024/04/15 20:44:07;;;;;;;13.37;5.77;;;;;;;10.78;97.63;98925.99;5040656;56;1138609;-80
2024/04/15 20:49:13;;;;;;;15.63;6.87;;;;;;;10.69;99.65;98888.62;5128777;55;1138605;-80
2024/04/15 20:54:19;;;;;;;16.67;6.42;;;;;;;10.67;99.01;98893.23;5097470;56;1138506;-81
2024/04/15 20:59:25;;;;;;;17.13;6.47;;;;;;;10.58;100.00;98868.56;5027329;56;1138857;-80
2024/04/15 21:04:31;;;;;;;22.35;6.25;;;;;;;10.53;100.00;98814.04;5092383;56;1141036;-81
2024/04/15 21:09:37;;;;;;;12.80;6.73;;;;;;;10.52;100.00;98831.38;5058580;56;1140660;-81
2024/04/15 21:14:43;;;;;;;13.70;7.37;;;;;;;10.50;100.00;98856.64;5043507;56;1140853;-81
2024/04/15 21:19:49;;;;;;;14.63;6.83;;;;;;;10.45;100.00;98882.72;5045246;57;1140662;-80
2024/04/15 21:24:55;;;;;;;17.40;8.23;;;;;;;10.38;100.00;98940.34;5025262;57;1140631;-80
2024/04/15 21:30:00;;;;;;;17.23;7.60;;;;;;;10.19;100.00;98954.09;5053610;56;1140819;-80
2024/04/15 21:35:07;;;;;;;13.90;7.87;;;;;;;9.97;100.00;98974.84;5025621;57;1140723;-80
2024/04/15 21:40:12;;;;;;;18.87;9.00;;;;;;;9.97;100.00;98974.84;5093499;56;1138548;-80
2024/04/15 21:45:18;;;;;;;11.67;6.53;;;;;;;9.93;100.00;98970.86;5098825;56;1138731;-81
2024/04/15 21:50:23;;;;;;;20.20;8.63;;;;;;;9.82;100.00;98967.95;5085045;56;1138520;-81
2024/04/15 21:55:29;;;;;;;13.53;6.70;;;;;;;9.70;100.00;98944.92;5119709;56;1138889;-81
2024/04/15 22:00:34;;;;;;;14.20;6.70;;;;;;;9.67;100.00;98932.02;5077261;56;1138817;-81
2024/04/15 22:05:40;;;;;;;14.87;7.87;;;;;;;9.74;100.00;98920.37;5064449;56;1138460;-82
2024/04/15 22:10:45;;;;;;;11.70;6.67;;;;;;;9.88;100.00;98899.53;5068708;56;1138528;-81
2024/04/15 22:15:51;;;;;;;12.67;6.60;;;;;;;10.01;100.00;98879.80;5025094;57;1138636;-81
2024/04/15 22:20:56;;;;;;;10.77;7.60;;;;;;;10.12;100.00;98881.67;5037474;56;1140710;-81
2024/04/15 22:26:02;;;;;;;8.73;6.60;;;;;;;10.04;100.00;98870.24;5100157;56;1140665;-81
2024/04/15 22:31:07;;;;;;;14.37;7.33;;;;;;;10.02;100.00;98858.52;5070736;56;1138530;-81
2024/04/15 22:36:14;;;;;;;13.48;6.62;;;;;;;10.11;100.00;98861.52;5045917;56;1141298;-81
2024/04/15 22:41:20;;;;;;;11.10;6.67;;;;;;;10.10;100.00;98859.87;5063427;56;1140762;-81
2024/04/15 22:46:26;;;;;;;13.90;7.03;;;;;;;10.13;100.00;98843.70;5050186;56;1141893;-81
2024/04/15 22:51:32;;;;;;;10.63;6.42;;;;;;;10.19;100.00;98820.67;5044344;57;1140573;-82
2024/04/15 22:56:38;;;;;;;17.30;7.77;;;;;;;10.19;100.00;98797.39;5113429;56;1140411;-81
2024/04/15 23:01:43;;;;;;;7.87;4.80;;;;;;;10.16;100.00;98774.72;5127603;56;1140556;-81
2024/04/15 23:06:49;;;;;;;8.40;5.53;;;;;;;10.14;100.00;98760.84;5044864;56;1138333;-81
2024/04/15 23:11:54;;;;;;;8.93;4.63;;;;;;;10.08;100.00;98742.17;5064346;57;1138490;-81
2024/04/15 23:17:00;;;;;;;8.83;5.20;;;;;;;10.01;100.00;98725.30;5045028;57;1138753;-81